sensor_id;sensor_type;location;lat;lon;timestamp;pressure;altitude;pressure_sealevel;temperature;humidity
21182;BME280;10749;46.296;7.524;2022-11-15T00:00:25;95005.91;;;9.63;64.84
21182;BME280;10749;46.296;7.524;2022-11-15T00:02:52;94995.84;;;9.59;64.95
21182;BME280;10749;46.296;7.524;2022-11-15T00:05:17;95000.16;;;9.60;64.92
21182;BME280;10749;46.296;7.524;2022-11-15T00:07:43;94993.88;;;9.53;64.77
21182;BME280;10749;46.296;7.524;2022-11-15T00:10:08;94985.97;;;9.45;65.10
21182;BME280;10749;46.296;7.524;2022-11-15T00:12:34;94981.88;;;9.42;65.12
21182;BME280;10749;46.296;7.524;2022-11-15T00:14:59;94984.34;;;9.44;64.78
21182;BME280;10749;46.296;7.524;2022-11-15T00:17:24;94976.72;;;9.49;64.87
21182;BME280;10749;46.296;7.524;2022-11-15T00:19:49;94971.47;;;9.33;64.78
21182;BME280;10749;46.296;7.524;2022-11-15T00:22:15;94957.63;;;9.31;64.95
21182;BME280;10749;46.296;7.524;2022-11-15T00:24:40;94959.59;;;9.37;64.78
21182;BME280;10749;46.296;7.524;2022-11-15T00:27:05;94957.97;;;9.36;64.81
21182;BME280;10749;46.296;7.524;2022-11-15T00:29:31;94960.09;;;9.32;65.03
21182;BME280;10749;46.296;7.524;2022-11-15T00:31:56;94954.81;;;9.32;64.95
21182;BME280;10749;46.296;7.524;2022-11-15T00:34:21;94962.91;;;9.31;65.14
21182;BME280;10749;46.296;7.524;2022-11-15T00:36:47;94961.59;;;9.26;65.23
21182;BME280;10749;46.296;7.524;2022-11-15T00:39:12;94953.00;;;9.24;65.40
21182;BME280;10749;46.296;7.524;2022-11-15T00:41:37;94961.63;;;9.18;65.14
21182;BME280;10749;46.296;7.524;2022-11-15T00:44:03;94961.44;;;9.20;65.13
21182;BME280;10749;46.296;7.524;2022-11-15T00:46:28;94965.56;;;9.22;65.13
21182;BME280;10749;46.296;7.524;2022-11-15T00:48:53;94972.47;;;9.23;65.09
21182;BME280;10749;46.296;7.524;2022-11-15T00:51:19;94973.31;;;9.24;65.33
21182;BME280;10749;46.296;7.524;2022-11-15T00:53:44;94970.16;;;9.28;65.27
21182;BME280;10749;46.296;7.524;2022-11-15T00:56:09;94958.13;;;9.34;65.12
21182;BME280;10749;46.296;7.524;2022-11-15T00:58:34;94952.00;;;9.34;65.08
21182;BME280;10749;46.296;7.524;2022-11-15T01:01:10;94949.88;;;9.29;65.22
21182;BME280;10749;46.296;7.524;2022-11-15T01:03:37;94946.25;;;9.30;65.13
21182;BME280;10749;46.296;7.524;2022-11-15T01:06:03;94927.09;;;9.28;65.35
21182;BME280;10749;46.296;7.524;2022-11-15T01:08:28;94929.91;;;9.26;64.89
21182;BME280;10749;46.296;7.524;2022-11-15T01:10:54;94927.44;;;9.17;64.81
21182;BME280;10749;46.296;7.524;2022-11-15T01:13:19;94924.97;;;9.15;64.81
21182;BME280;10749;46.296;7.524;2022-11-15T01:15:44;94916.41;;;9.13;64.70
21182;BME280;10749;46.296;7.524;2022-11-15T01:18:10;94909.97;;;9.16;64.86
21182;BME280;10749;46.296;7.524;2022-11-15T01:20:40;94904.66;;;9.24;65.09
21182;BME280;10749;46.296;7.524;2022-11-15T01:23:06;94903.81;;;9.23;65.11
21182;BME280;10749;46.296;7.524;2022-11-15T01:25:31;94906.16;;;9.18;65.09
21182;BME280;10749;46.296;7.524;2022-11-15T01:27:56;94896.63;;;9.09;64.71
21182;BME280;10749;46.296;7.524;2022-11-15T01:30:30;94894.47;;;9.05;64.92
21182;BME280;10749;46.296;7.524;2022-11-15T01:32:55;94893.31;;;9.07;64.99
21182;BME280;10749;46.296;7.524;2022-11-15T01:35:21;94893.81;;;9.03;65.50
21182;BME280;10749;46.296;7.524;2022-11-15T01:37:46;94885.72;;;9.04;65.22
21182;BME280;10749;46.296;7.524;2022-11-15T01:40:11;94885.88;;;9.03;65.17
21182;BME280;10749;46.296;7.524;2022-11-15T01:42:37;94881.44;;;9.03;65.25
21182;BME280;10749;46.296;7.524;2022-11-15T01:45:05;94873.53;;;9.03;65.18
21182;BME280;10749;46.296;7.524;2022-11-15T01:47:35;94874.53;;;9.02;65.24
21182;BME280;10749;46.296;7.524;2022-11-15T01:50:08;94873.75;;;8.86;65.00
21182;BME280;10749;46.296;7.524;2022-11-15T01:52:35;94885.13;;;8.86;64.79
21182;BME280;10749;46.296;7.524;2022-11-15T01:55:13;94879.53;;;8.81;64.98
21182;BME280;10749;46.296;7.524;2022-11-15T01:57:41;94871.28;;;8.84;65.28
21182;BME280;10749;46.296;7.524;2022-11-15T02:00:08;94869.31;;;8.86;65.05
21182;BME280;10749;46.296;7.524;2022-11-15T02:02:35;94870.91;;;8.87;65.29
21182;BME280;10749;46.296;7.524;2022-11-15T02:05:02;94870.59;;;8.90;65.22
21182;BME280;10749;46.296;7.524;2022-11-15T02:07:28;94873.38;;;8.97;65.09
21182;BME280;10749;46.296;7.524;2022-11-15T02:09:55;94867.28;;;8.96;65.09
21182;BME280;10749;46.296;7.524;2022-11-15T02:12:22;94854.75;;;8.98;65.01
21182;BME280;10749;46.296;7.524;2022-11-15T02:14:52;94858.53;;;8.96;65.14
21182;BME280;10749;46.296;7.524;2022-11-15T02:17:44;94854.78;;;8.90;65.19
21182;BME280;10749;46.296;7.524;2022-11-15T02:29:02;94836.63;;;8.79;65.09
21182;BME280;10749;46.296;7.524;2022-11-15T02:31:39;94841.06;;;8.87;64.95
21182;BME280;10749;46.296;7.524;2022-11-15T02:34:18;94831.53;;;8.86;65.06
21182;BME280;10749;46.296;7.524;2022-11-15T02:39:56;94816.19;;;8.81;64.96
21182;BME280;10749;46.296;7.524;2022-11-15T02:42:30;94817.53;;;8.77;65.21
21182;BME280;10749;46.296;7.524;2022-11-15T02:45:27;94816.22;;;8.73;65.24
21182;BME280;10749;46.296;7.524;2022-11-15T02:47:56;94819.81;;;8.80;65.34
21182;BME280;10749;46.296;7.524;2022-11-15T02:50:27;94820.47;;;8.82;65.09
21182;BME280;10749;46.296;7.524;2022-11-15T02:52:53;94812.53;;;8.82;65.17
21182;BME280;10749;46.296;7.524;2022-11-15T02:55:41;94813.88;;;8.78;65.04
21182;BME280;10749;46.296;7.524;2022-11-15T03:03:38;94803.66;;;8.75;65.22
21182;BME280;10749;46.296;7.524;2022-11-15T03:11:37;94815.22;;;8.66;65.23
21182;BME280;10749;46.296;7.524;2022-11-15T03:19:32;94807.16;;;8.59;65.21
21182;BME280;10749;46.296;7.524;2022-11-15T03:22:03;94808.31;;;8.65;65.11
21182;BME280;10749;46.296;7.524;2022-11-15T03:24:33;94801.88;;;8.67;65.20
21182;BME280;10749;46.296;7.524;2022-11-15T03:27:01;94799.75;;;8.63;65.11
21182;BME280;10749;46.296;7.524;2022-11-15T03:29:32;94806.50;;;8.57;65.32
21182;BME280;10749;46.296;7.524;2022-11-15T03:32:03;94791.50;;;8.58;65.30
21182;BME280;10749;46.296;7.524;2022-11-15T03:34:41;94788.22;;;8.56;65.14
21182;BME280;10749;46.296;7.524;2022-11-15T03:37:10;94790.88;;;8.48;65.42
21182;BME280;10749;46.296;7.524;2022-11-15T03:39:37;94789.56;;;8.44;65.01
21182;BME280;10749;46.296;7.524;2022-11-15T03:44:40;94779.34;;;8.41;65.15
21182;BME280;10749;46.296;7.524;2022-11-15T03:47:26;94779.97;;;8.51;65.21
21182;BME280;10749;46.296;7.524;2022-11-15T03:49:58;94774.38;;;8.54;64.82
21182;BME280;10749;46.296;7.524;2022-11-15T03:52:25;94773.06;;;8.50;64.87
21182;BME280;10749;46.296;7.524;2022-11-15T03:54:53;94778.84;;;8.37;65.12
21182;BME280;10749;46.296;7.524;2022-11-15T03:57:18;94770.47;;;8.33;64.81
21182;BME280;10749;46.296;7.524;2022-11-15T03:59:44;94776.19;;;8.45;64.99
21182;BME280;10749;46.296;7.524;2022-11-15T04:02:09;94776.38;;;8.52;65.46
21182;BME280;10749;46.296;7.524;2022-11-15T04:04:34;94769.56;;;8.57;65.36
21182;BME280;10749;46.296;7.524;2022-11-15T04:07:00;94778.00;;;8.61;65.25
21182;BME280;10749;46.296;7.524;2022-11-15T04:09:25;94778.00;;;8.61;65.17
21182;BME280;10749;46.296;7.524;2022-11-15T04:11:50;94769.88;;;8.62;65.28
21182;BME280;10749;46.296;7.524;2022-11-15T04:14:16;94770.72;;;8.63;64.91
21182;BME280;10749;46.296;7.524;2022-11-15T04:16:41;94769.41;;;8.59;65.06
21182;BME280;10749;46.296;7.524;2022-11-15T04:19:06;94763.16;;;8.60;64.87
21182;BME280;10749;46.296;7.524;2022-11-15T04:21:50;94764.63;;;8.54;64.84
21182;BME280;10749;46.296;7.524;2022-11-15T04:24:34;94752.94;;;8.57;64.59
21182;BME280;10749;46.296;7.524;2022-11-15T04:26:59;94750.78;;;8.60;64.89
21182;BME280;10749;46.296;7.524;2022-11-15T04:29:25;94742.66;;;8.70;64.81
21182;BME280;10749;46.296;7.524;2022-11-15T04:32:00;94750.41;;;8.71;64.82
21182;BME280;10749;46.296;7.524;2022-11-15T04:34:29;94749.09;;;8.67;65.03
21182;BME280;10749;46.296;7.524;2022-11-15T04:36:54;94741.03;;;8.69;65.20
21182;BME280;10749;46.296;7.524;2022-11-15T04:39:39;94739.22;;;8.69;65.12
21182;BME280;10749;46.296;7.524;2022-11-15T04:42:04;94741.03;;;8.69;65.38
21182;BME280;10749;46.296;7.524;2022-11-15T04:44:30;94735.75;;;8.69;65.07
21182;BME280;10749;46.296;7.524;2022-11-15T04:46:56;94738.03;;;8.72;65.15
21182;BME280;10749;46.296;7.524;2022-11-15T04:49:21;94731.78;;;8.73;64.96
21182;BME280;10749;46.296;7.524;2022-11-15T04:51:47;94735.25;;;8.73;65.23
21182;BME280;10749;46.296;7.524;2022-11-15T04:54:13;94733.41;;;8.74;65.01
21182;BME280;10749;46.296;7.524;2022-11-15T04:56:38;94732.09;;;8.70;65.10
21182;BME280;10749;46.296;7.524;2022-11-15T04:59:03;94723.91;;;8.65;65.56
21182;BME280;10749;46.296;7.524;2022-11-15T05:01:29;94725.84;;;8.71;65.45
21182;BME280;10749;46.296;7.524;2022-11-15T05:03:54;94717.28;;;8.69;65.58
21182;BME280;10749;46.296;7.524;2022-11-15T05:06:38;94712.66;;;8.71;65.42
21182;BME280;10749;46.296;7.524;2022-11-15T05:09:03;94715.94;;;8.73;65.35
21182;BME280;10749;46.296;7.524;2022-11-15T05:11:28;94713.13;;;8.74;65.47
21182;BME280;10749;46.296;7.524;2022-11-15T05:13:54;94718.88;;;8.78;65.51
21182;BME280;10749;46.296;7.524;2022-11-15T05:16:19;94720.19;;;8.82;65.33
21182;BME280;10749;46.296;7.524;2022-11-15T05:18:44;94715.56;;;8.84;65.50
21182;BME280;10749;46.296;7.524;2022-11-15T05:21:12;94709.63;;;8.82;65.33
21182;BME280;10749;46.296;7.524;2022-11-15T05:23:37;94716.91;;;8.80;65.43
21182;BME280;10749;46.296;7.524;2022-11-15T05:26:04;94712.25;;;8.82;65.62
21182;BME280;10749;46.296;7.524;2022-11-15T05:28:31;94701.06;;;8.80;65.52
21182;BME280;10749;46.296;7.524;2022-11-15T05:31:04;94712.44;;;8.80;65.62
21182;BME280;10749;46.296;7.524;2022-11-15T05:33:30;94708.88;;;8.73;65.40
21182;BME280;10749;46.296;7.524;2022-11-15T05:36:04;94708.31;;;8.78;65.35
21182;BME280;10749;46.296;7.524;2022-11-15T05:38:30;94695.78;;;8.80;65.39
21182;BME280;10749;46.296;7.524;2022-11-15T05:40:56;94696.75;;;8.87;65.45
21182;BME280;10749;46.296;7.524;2022-11-15T05:43:22;94701.53;;;8.84;65.38
21182;BME280;10749;46.296;7.524;2022-11-15T05:45:48;94696.44;;;8.82;65.52
21182;BME280;10749;46.296;7.524;2022-11-15T05:48:14;94697.44;;;8.81;65.70
21182;BME280;10749;46.296;7.524;2022-11-15T05:50:42;94692.47;;;8.78;65.76
21182;BME280;10749;46.296;7.524;2022-11-15T05:53:10;94698.28;;;8.82;65.69
21182;BME280;10749;46.296;7.524;2022-11-15T05:55:38;94699.38;;;8.87;65.57
21182;BME280;10749;46.296;7.524;2022-11-15T05:58:05;94700.56;;;8.85;65.47
21182;BME280;10749;46.296;7.524;2022-11-15T06:00:30;94696.09;;;8.85;65.30
21182;BME280;10749;46.296;7.524;2022-11-15T06:02:55;94688.81;;;8.87;65.70
21182;BME280;10749;46.296;7.524;2022-11-15T06:05:21;94690.47;;;8.88;65.56
21182;BME280;10749;46.296;7.524;2022-11-15T06:07:46;94696.75;;;8.87;65.56
21182;BME280;10749;46.296;7.524;2022-11-15T06:10:11;94693.47;;;8.85;65.92
21182;BME280;10749;46.296;7.524;2022-11-15T06:12:37;94698.75;;;8.85;65.78
21182;BME280;10749;46.296;7.524;2022-11-15T06:15:02;94695.44;;;8.83;66.00
21182;BME280;10749;46.296;7.524;2022-11-15T06:17:28;94692.47;;;8.78;65.83
21182;BME280;10749;46.296;7.524;2022-11-15T06:19:54;94689.53;;;8.81;65.81
21182;BME280;10749;46.296;7.524;2022-11-15T06:22:19;94700.72;;;8.83;65.69
21182;BME280;10749;46.296;7.524;2022-11-15T06:24:44;94697.44;;;8.81;65.52
21182;BME280;10749;46.296;7.524;2022-11-15T06:27:11;94695.44;;;8.83;65.68
21182;BME280;10749;46.296;7.524;2022-11-15T06:29:36;94690.47;;;8.88;65.45
21182;BME280;10749;46.296;7.524;2022-11-15T06:32:01;94699.56;;;8.86;65.56
21182;BME280;10749;46.296;7.524;2022-11-15T06:34:27;94691.47;;;8.87;65.56
21182;BME280;10749;46.296;7.524;2022-11-15T06:36:52;94692.13;;;8.89;65.66
21182;BME280;10749;46.296;7.524;2022-11-15T06:39:17;94695.41;;;8.91;65.27
21182;BME280;10749;46.296;7.524;2022-11-15T06:41:43;94708.59;;;8.91;65.52
21182;BME280;10749;46.296;7.524;2022-11-15T06:44:08;94701.50;;;8.92;65.44
21182;BME280;10749;46.296;7.524;2022-11-15T06:46:34;94698.88;;;8.92;65.58
21182;BME280;10749;46.296;7.524;2022-11-15T06:48:59;94703.31;;;8.91;65.45
21182;BME280;10749;46.296;7.524;2022-11-15T06:51:24;94692.44;;;8.94;65.55
21182;BME280;10749;46.296;7.524;2022-11-15T06:53:50;94690.44;;;8.96;65.15
21182;BME280;10749;46.296;7.524;2022-11-15T06:56:15;94699.00;;;8.98;65.64
21182;BME280;10749;46.296;7.524;2022-11-15T06:58:40;94692.72;;;8.99;65.51
21182;BME280;10749;46.296;7.524;2022-11-15T07:01:11;94704.41;;;9.05;65.63
21182;BME280;10749;46.296;7.524;2022-11-15T07:03:39;94700.63;;;8.99;65.55
21182;BME280;10749;46.296;7.524;2022-11-15T07:06:05;94702.94;;;9.02;65.84
21182;BME280;10749;46.296;7.524;2022-11-15T07:08:31;94699.13;;;9.05;65.65
21182;BME280;10749;46.296;7.524;2022-11-15T07:11:00;94691.03;;;9.06;65.64
21182;BME280;10749;46.296;7.524;2022-11-15T07:13:28;94696.44;;;9.13;65.63
21182;BME280;10749;46.296;7.524;2022-11-15T07:15:54;94703.84;;;9.17;65.66
21182;BME280;10749;46.296;7.524;2022-11-15T07:18:20;94707.88;;;9.05;65.24
21182;BME280;10749;46.296;7.524;2022-11-15T07:20:45;94710.88;;;9.02;65.15
21182;BME280;10749;46.296;7.524;2022-11-15T07:23:10;94711.50;;;9.04;65.09
21182;BME280;10749;46.296;7.524;2022-11-15T07:25:35;94713.19;;;8.97;65.36
21182;BME280;10749;46.296;7.524;2022-11-15T07:28:01;94713.50;;;9.02;65.34
21182;BME280;10749;46.296;7.524;2022-11-15T07:30:27;94711.44;;;9.12;65.41
21182;BME280;10749;46.296;7.524;2022-11-15T07:32:59;94716.69;;;9.20;65.51
21182;BME280;10749;46.296;7.524;2022-11-15T07:35:26;94716.47;;;9.30;65.54
21182;BME280;10749;46.296;7.524;2022-11-15T07:37:59;94720.28;;;9.27;65.38
21182;BME280;10749;46.296;7.524;2022-11-15T07:40:26;94725.22;;;9.31;65.43
21182;BME280;10749;46.296;7.524;2022-11-15T07:42:52;94717.25;;;9.39;65.57
21182;BME280;10749;46.296;7.524;2022-11-15T07:45:19;94712.25;;;9.44;65.51
21182;BME280;10749;46.296;7.524;2022-11-15T07:47:48;94715.84;;;9.51;65.75
21182;BME280;10749;46.296;7.524;2022-11-15T07:50:13;94717.00;;;9.48;65.96
21182;BME280;10749;46.296;7.524;2022-11-15T07:52:38;94718.78;;;9.56;65.93
21182;BME280;10749;46.296;7.524;2022-11-15T07:55:04;94707.13;;;9.65;65.83
21182;BME280;10749;46.296;7.524;2022-11-15T07:57:30;94706.91;;;9.74;65.93
21182;BME280;10749;46.296;7.524;2022-11-15T07:59:55;94714.28;;;9.79;65.71
21182;BME280;10749;46.296;7.524;2022-11-15T08:02:20;94717.59;;;9.81;65.54
21182;BME280;10749;46.296;7.524;2022-11-15T08:04:45;94711.94;;;9.84;65.37
21182;BME280;10749;46.296;7.524;2022-11-15T08:07:11;94711.28;;;9.82;65.48
21182;BME280;10749;46.296;7.524;2022-11-15T08:09:36;94713.59;;;9.85;65.46
21182;BME280;10749;46.296;7.524;2022-11-15T08:12:01;94719.22;;;9.82;65.44
21182;BME280;10749;46.296;7.524;2022-11-15T08:14:27;94717.81;;;9.71;65.56
21182;BME280;10749;46.296;7.524;2022-11-15T08:16:52;94720.63;;;9.70;65.17
21182;BME280;10749;46.296;7.524;2022-11-15T08:19:19;94716.69;;;9.66;65.62
21182;BME280;10749;46.296;7.524;2022-11-15T08:21:44;94719.34;;;9.66;65.21
21182;BME280;10749;46.296;7.524;2022-11-15T08:24:10;94725.59;;;9.73;65.42
21182;BME280;10749;46.296;7.524;2022-11-15T08:26:35;94727.66;;;9.78;65.32
21182;BME280;10749;46.296;7.524;2022-11-15T08:29:01;94720.88;;;9.83;65.24
21182;BME280;10749;46.296;7.524;2022-11-15T08:31:26;94723.34;;;9.85;65.65
21182;BME280;10749;46.296;7.524;2022-11-15T08:33:51;94718.16;;;9.91;65.52
21182;BME280;10749;46.296;7.524;2022-11-15T08:36:17;94719.06;;;9.98;65.49
21182;BME280;10749;46.296;7.524;2022-11-15T08:38:42;94716.34;;;10.06;65.50
21182;BME280;10749;46.296;7.524;2022-11-15T08:41:33;94716.03;;;10.09;65.36
21182;BME280;10749;46.296;7.524;2022-11-15T08:43:58;94712.50;;;10.17;65.43
21182;BME280;10749;46.296;7.524;2022-11-15T08:46:24;94713.63;;;10.23;65.55
21182;BME280;10749;46.296;7.524;2022-11-15T08:48:49;94705.09;;;10.27;65.39
21182;BME280;10749;46.296;7.524;2022-11-15T08:51:15;94708.88;;;10.33;65.44
21182;BME280;10749;46.296;7.524;2022-11-15T08:53:41;94703.03;;;10.37;65.48
21182;BME280;10749;46.296;7.524;2022-11-15T08:56:11;94715.72;;;10.42;65.38
21182;BME280;10749;46.296;7.524;2022-11-15T08:58:36;94716.53;;;10.42;65.20
21182;BME280;10749;46.296;7.524;2022-11-15T09:01:02;94706.59;;;10.44;65.41
21182;BME280;10749;46.296;7.524;2022-11-15T09:03:28;94707.25;;;10.46;65.59
21182;BME280;10749;46.296;7.524;2022-11-15T09:05:57;94711.16;;;10.50;65.43
21182;BME280;10749;46.296;7.524;2022-11-15T09:08:24;94712.97;;;10.50;65.09
21182;BME280;10749;46.296;7.524;2022-11-15T09:10:49;94710.63;;;10.55;65.13
21182;BME280;10749;46.296;7.524;2022-11-15T09:13:15;94708.59;;;10.57;65.22
21182;BME280;10749;46.296;7.524;2022-11-15T09:15:40;94699.84;;;10.56;64.96
21182;BME280;10749;46.296;7.524;2022-11-15T09:18:05;94696.38;;;10.56;65.06
21182;BME280;10749;46.296;7.524;2022-11-15T09:20:31;94694.09;;;10.53;65.31
21182;BME280;10749;46.296;7.524;2022-11-15T09:23:02;94686.25;;;10.59;65.20
21182;BME280;10749;46.296;7.524;2022-11-15T09:25:28;94687.59;;;10.70;65.02
21182;BME280;10749;46.296;7.524;2022-11-15T09:27:53;94688.50;;;10.77;65.09
21182;BME280;10749;46.296;7.524;2022-11-15T09:30:19;94686.69;;;10.78;65.09
21182;BME280;10749;46.296;7.524;2022-11-15T09:32:44;94684.03;;;10.78;65.23
21182;BME280;10749;46.296;7.524;2022-11-15T09:35:09;94681.22;;;10.79;64.97
21182;BME280;10749;46.296;7.524;2022-11-15T09:37:35;94679.41;;;10.80;65.02
21182;BME280;10749;46.296;7.524;2022-11-15T09:40:00;94677.03;;;10.85;65.12
21182;BME280;10749;46.296;7.524;2022-11-15T09:48:10;94676.00;;;11.22;64.99
21182;BME280;10749;46.296;7.524;2022-11-15T09:50:47;94672.88;;;11.33;65.06
21182;BME280;10749;46.296;7.524;2022-11-15T09:53:24;94665.41;;;11.43;64.98
21182;BME280;10749;46.296;7.524;2022-11-15T10:04:20;94649.63;;;11.35;64.67
21182;BME280;10749;46.296;7.524;2022-11-15T10:06:55;94651.09;;;11.16;65.02
21182;BME280;10749;46.296;7.524;2022-11-15T10:09:34;94657.38;;;11.15;64.76
21182;BME280;10749;46.296;7.524;2022-11-15T10:12:01;94653.84;;;11.08;64.95
21182;BME280;10749;46.296;7.524;2022-11-15T10:14:28;94655.75;;;11.14;65.02
21182;BME280;10749;46.296;7.524;2022-11-15T10:27:33;94617.09;;;11.83;64.58
21182;BME280;10749;46.296;7.524;2022-11-15T10:29:59;94608.34;;;11.89;64.54
21182;BME280;10749;46.296;7.524;2022-11-15T10:32:25;94609.41;;;11.95;64.50
21182;BME280;10749;46.296;7.524;2022-11-15T10:34:50;94608.19;;;11.97;64.31
21182;BME280;10749;46.296;7.524;2022-11-15T10:37:30;94604.53;;;11.98;64.48
21182;BME280;10749;46.296;7.524;2022-11-15T10:40:23;94593.06;;;11.91;64.16
21182;BME280;10749;46.296;7.524;2022-11-15T10:45:36;94591.13;;;12.07;64.26
21182;BME280;10749;46.296;7.524;2022-11-15T10:50:41;94592.44;;;12.17;64.38
21182;BME280;10749;46.296;7.524;2022-11-15T10:53:44;94581.00;;;12.17;64.30
21182;BME280;10749;46.296;7.524;2022-11-15T10:56:12;94578.56;;;12.22;64.13
21182;BME280;10749;46.296;7.524;2022-11-15T10:58:50;94571.63;;;12.21;64.27
21182;BME280;10749;46.296;7.524;2022-11-15T11:01:22;94569.19;;;12.26;64.20
21182;BME280;10749;46.296;7.524;2022-11-15T11:04:03;94558.84;;;12.37;64.25
21182;BME280;10749;46.296;7.524;2022-11-15T11:06:29;94552.34;;;12.46;64.06
21182;BME280;10749;46.296;7.524;2022-11-15T11:08:58;94554.03;;;12.54;64.10
21182;BME280;10749;46.296;7.524;2022-11-15T11:11:25;94553.63;;;12.57;63.96
21182;BME280;10749;46.296;7.524;2022-11-15T11:14:13;94548.91;;;12.59;63.91
21182;BME280;10749;46.296;7.524;2022-11-15T11:16:45;94542.19;;;12.63;64.23
21182;BME280;10749;46.296;7.524;2022-11-15T11:21:59;94544.47;;;12.73;64.09
21182;BME280;10749;46.296;7.524;2022-11-15T11:24:54;94539.41;;;12.78;63.94
21182;BME280;10749;46.296;7.524;2022-11-15T11:30:14;94526.91;;;12.72;63.76
21182;BME280;10749;46.296;7.524;2022-11-15T11:38:30;94513.44;;;12.67;63.82
21182;BME280;10749;46.296;7.524;2022-11-15T11:46:18;94509.13;;;12.72;63.68
21182;BME280;10749;46.296;7.524;2022-11-15T11:51:40;94502.41;;;12.76;63.83
21182;BME280;10749;46.296;7.524;2022-11-15T11:54:24;94504.06;;;12.77;63.50
21182;BME280;10749;46.296;7.524;2022-11-15T11:56:52;94494.66;;;12.75;63.65
21182;BME280;10749;46.296;7.524;2022-11-15T11:59:37;94497.50;;;12.73;63.40
21182;BME280;10749;46.296;7.524;2022-11-15T12:02:14;94501.19;;;12.72;63.39
21182;BME280;10749;46.296;7.524;2022-11-15T12:04:45;94499.75;;;12.70;63.48
21182;BME280;10749;46.296;7.524;2022-11-15T12:07:17;94488.91;;;12.71;63.48
21182;BME280;10749;46.296;7.524;2022-11-15T12:10:04;94497.69;;;12.72;63.11
21182;BME280;10749;46.296;7.524;2022-11-15T12:12:44;94487.72;;;12.74;63.51
21182;BME280;10749;46.296;7.524;2022-11-15T12:15:16;94481.56;;;12.73;63.26
21182;BME280;10749;46.296;7.524;2022-11-15T12:17:45;94483.81;;;12.76;63.32
21182;BME280;10749;46.296;7.524;2022-11-15T12:20:17;94484.44;;;12.78;63.24
21182;BME280;10749;46.296;7.524;2022-11-15T12:23:26;94476.69;;;12.77;63.16
21182;BME280;10749;46.296;7.524;2022-11-15T12:25:57;94469.72;;;12.76;63.01
21182;BME280;10749;46.296;7.524;2022-11-15T12:28:40;94474.63;;;12.72;63.05
21182;BME280;10749;46.296;7.524;2022-11-15T12:33:47;94465.44;;;12.75;62.83
21182;BME280;10749;46.296;7.524;2022-11-15T12:38:56;94448.50;;;12.82;62.88
21182;BME280;10749;46.296;7.524;2022-11-15T12:41:30;94439.94;;;12.87;62.83
21182;BME280;10749;46.296;7.524;2022-11-15T12:43:56;94443.59;;;12.92;62.90
21182;BME280;10749;46.296;7.524;2022-11-15T12:51:23;94421.53;;;12.99;62.74
21182;BME280;10749;46.296;7.524;2022-11-15T13:02:39;94401.94;;;13.13;62.57
21182;BME280;10749;46.296;7.524;2022-11-15T13:17:48;94371.88;;;13.32;62.34
21182;BME280;10749;46.296;7.524;2022-11-15T13:22:50;94381.06;;;13.36;62.13
21182;BME280;10749;46.296;7.524;2022-11-15T13:27:50;94370.44;;;13.36;62.41
21182;BME280;10749;46.296;7.524;2022-11-15T13:30:21;94361.44;;;13.37;62.40
21182;BME280;10749;46.296;7.524;2022-11-15T13:32:47;94354.31;;;13.37;62.09
21182;BME280;10749;46.296;7.524;2022-11-15T13:35:27;94354.50;;;13.36;62.03
21182;BME280;10749;46.296;7.524;2022-11-15T13:37:55;94352.44;;;13.38;62.08
21182;BME280;10749;46.296;7.524;2022-11-15T13:40:29;94356.13;;;13.37;61.96
21182;BME280;10749;46.296;7.524;2022-11-15T13:42:58;94340.19;;;13.37;61.87
21182;BME280;10749;46.296;7.524;2022-11-15T13:45:24;94337.09;;;13.33;62.10
21182;BME280;10749;46.296;7.524;2022-11-15T13:47:57;94336.91;;;13.35;62.20
21182;BME280;10749;46.296;7.524;2022-11-15T13:50:27;94332.00;;;13.45;62.35
21182;BME280;10749;46.296;7.524;2022-11-15T13:53:00;94319.25;;;13.60;62.33
21182;BME280;10749;46.296;7.524;2022-11-15T13:55:29;94316.78;;;13.59;61.85
21182;BME280;10749;46.296;7.524;2022-11-15T13:58:00;94303.72;;;13.57;61.64
21182;BME280;10749;46.296;7.524;2022-11-15T14:00:41;94306.19;;;13.52;61.70
21182;BME280;10749;46.296;7.524;2022-11-15T14:03:25;94312.13;;;13.48;61.78
21182;BME280;10749;46.296;7.524;2022-11-15T14:06:12;94304.19;;;13.41;61.76
21182;BME280;10749;46.296;7.524;2022-11-15T14:08:57;94303.81;;;13.37;61.72
21182;BME280;10749;46.296;7.524;2022-11-15T14:11:23;94304.44;;;13.33;61.93
21182;BME280;10749;46.296;7.524;2022-11-15T14:16:37;94294.19;;;13.30;61.99
21182;BME280;10749;46.296;7.524;2022-11-15T14:19:04;94294.19;;;13.30;61.72
21182;BME280;10749;46.296;7.524;2022-11-15T14:21:30;94293.78;;;13.26;61.25
21182;BME280;10749;46.296;7.524;2022-11-15T14:24:20;94294.41;;;13.22;61.55
21182;BME280;10749;46.296;7.524;2022-11-15T14:26:46;94295.28;;;13.16;61.51
21182;BME280;10749;46.296;7.524;2022-11-15T14:29:29;94290.34;;;13.13;61.75
21182;BME280;10749;46.296;7.524;2022-11-15T14:32:15;94288.31;;;13.15;61.69
21182;BME280;10749;46.296;7.524;2022-11-15T14:34:41;94292.00;;;13.14;61.44
21182;BME280;10749;46.296;7.524;2022-11-15T14:37:18;94285.84;;;13.13;61.59
21182;BME280;10749;46.296;7.524;2022-11-15T14:39:44;94286.09;;;13.12;61.47
21182;BME280;10749;46.296;7.524;2022-11-15T14:42:09;94280.53;;;13.13;61.47
21182;BME280;10749;46.296;7.524;2022-11-15T14:44:34;94279.53;;;13.08;61.20
21182;BME280;10749;46.296;7.524;2022-11-15T14:47:00;94281.16;;;13.02;61.42
21182;BME280;10749;46.296;7.524;2022-11-15T14:49:25;94281.78;;;13.04;61.43
21182;BME280;10749;46.296;7.524;2022-11-15T14:51:51;94272.19;;;13.03;61.18
21182;BME280;10749;46.296;7.524;2022-11-15T14:54:16;94266.63;;;13.05;61.48
21182;BME280;10749;46.296;7.524;2022-11-15T14:56:41;94262.16;;;13.05;61.31
21182;BME280;10749;46.296;7.524;2022-11-15T14:59:07;94265.63;;;13.06;61.13
21182;BME280;10749;46.296;7.524;2022-11-15T15:01:33;94263.19;;;13.04;61.27
21182;BME280;10749;46.296;7.524;2022-11-15T15:03:58;94254.41;;;13.04;61.23
21182;BME280;10749;46.296;7.524;2022-11-15T15:06:25;94250.72;;;12.98;61.39
21182;BME280;10749;46.296;7.524;2022-11-15T15:08:50;94244.81;;;12.96;61.23
21182;BME280;10749;46.296;7.524;2022-11-15T15:11:29;94244.81;;;12.89;61.26
21182;BME280;10749;46.296;7.524;2022-11-15T15:13:55;94245.22;;;12.93;61.28
21182;BME280;10749;46.296;7.524;2022-11-15T15:16:23;94239.50;;;12.96;61.11